createdAt,value
2022-09-20T00:00:00.663Z,0
2022-09-20T00:01:00.894Z,0
2022-09-20T00:02:00.650Z,0
2022-09-20T00:03:00.690Z,0
2022-09-20T00:04:00.458Z,0
2022-09-20T00:05:01.298Z,0
2022-09-20T00:06:00.469Z,0
2022-09-20T00:07:00.741Z,0
2022-09-20T00:08:00.495Z,0
2022-09-20T00:09:00.786Z,0
2022-09-20T00:10:00.840Z,0
2022-09-20T00:11:00.825Z,0
2022-09-20T00:12:00.865Z,0
2022-09-20T00:13:00.850Z,0
2022-09-20T00:14:00.851Z,0
2022-09-20T00:15:00.626Z,0
2022-09-20T00:16:01.221Z,0
2022-09-20T00:17:01.655Z,0
2022-09-20T00:18:01.047Z,0
2022-09-20T00:19:00.750Z,0
2022-09-20T00:20:00.992Z,0
2022-09-20T00:21:01.005Z,0
2022-09-20T00:22:01.277Z,0
2022-09-20T00:23:01.033Z,0
2022-09-20T00:24:01.057Z,0
2022-09-20T00:25:00.823Z,0
2022-09-20T00:26:01.378Z,0
2022-09-20T00:27:01.104Z,0
2022-09-20T00:28:01.128Z,0
2022-09-20T00:29:00.719Z,0
2022-09-20T00:30:01.203Z,0
2022-09-20T00:31:00.963Z,0
2022-09-20T00:32:02.137Z,0
2022-09-20T00:33:01.227Z,0
2022-09-20T00:34:01.259Z,0
2022-09-20T00:35:01.302Z,0
2022-09-20T00:36:01.538Z,0
2022-09-20T00:37:01.563Z,0
2022-09-20T00:38:01.053Z,0
2022-09-20T00:39:01.075Z,0
2022-09-20T00:40:01.777Z,0
2022-09-20T00:41:01.371Z,0
2022-09-20T00:42:01.143Z,0
2022-09-20T00:43:01.433Z,0
2022-09-20T00:44:01.772Z,0
2022-09-20T00:45:01.204Z,0
2022-09-20T00:46:01.899Z,0
2022-09-20T00:47:01.483Z,0
2022-09-20T00:48:01.291Z,0
2022-09-20T00:49:01.259Z,0
2022-09-20T00:50:01.810Z,0
2022-09-20T00:51:01.324Z,0
2022-09-20T00:52:01.606Z,0
2022-09-20T00:53:01.336Z,0
2022-09-20T00:54:01.611Z,0
2022-09-20T00:55:01.383Z,0
2022-09-20T00:56:01.136Z,0
2022-09-20T00:57:01.413Z,0
2022-09-20T00:58:01.704Z,0
2022-09-20T00:59:01.524Z,0
2022-09-20T01:00:01.200Z,0
2022-09-20T01:01:02.372Z,0
2022-09-20T01:02:01.618Z,0
2022-09-20T01:03:01.517Z,0
2022-09-20T01:04:01.587Z,0
2022-09-20T01:05:02.068Z,0
2022-09-20T01:06:02.096Z,0
2022-09-20T01:07:01.364Z,0
2022-09-20T01:08:01.361Z,0
2022-09-20T01:09:01.111Z,0
2022-09-20T01:10:01.395Z,0
2022-09-20T01:11:01.666Z,0
2022-09-20T01:12:02.205Z,0
2022-09-20T01:13:01.440Z,0
2022-09-20T01:14:01.607Z,0
2022-09-20T01:15:01.730Z,0
2022-09-20T01:16:01.517Z,0
2022-09-20T01:17:02.326Z,0
2022-09-20T01:18:02.919Z,0
2022-09-20T01:19:02.327Z,0
2022-09-20T01:20:02.148Z,0
2022-09-20T01:21:01.589Z,0
2022-09-20T01:22:01.624Z,0
2022-09-20T01:23:02.174Z,0
2022-09-20T01:24:01.930Z,0
2022-09-20T01:25:01.411Z,0
2022-09-20T01:26:02.198Z,0
2022-09-20T01:27:02.488Z,0
2022-09-20T01:28:01.979Z,0
2022-09-20T01:29:02.214Z,0
2022-09-20T01:30:01.793Z,0
2022-09-20T01:31:02.317Z,0
2022-09-20T01:32:02.563Z,0
2022-09-20T01:33:02.595Z,0
2022-09-20T01:34:02.648Z,0
2022-09-20T01:35:02.646Z,0
2022-09-20T01:36:02.428Z,0
2022-09-20T01:37:02.137Z,0
2022-09-20T01:38:01.904Z,0
2022-09-20T01:39:02.204Z,0
2022-09-20T01:40:02.405Z,0
2022-09-20T01:41:02.486Z,0
2022-09-20T01:42:02.898Z,0
2022-09-20T01:43:02.261Z,0
2022-09-20T01:44:02.409Z,0
2022-09-20T01:45:02.328Z,0
2022-09-20T01:46:02.534Z,0
2022-09-20T01:47:02.894Z,0
2022-09-20T01:48:02.621Z,0
2022-09-20T01:49:02.379Z,0
2022-09-20T01:50:02.664Z,0
2022-09-20T01:51:02.155Z,0
2022-09-20T01:52:02.884Z,0
2022-09-20T01:53:02.703Z,0
2022-09-20T01:54:03.029Z,0
2022-09-20T01:55:02.309Z,0
2022-09-20T01:56:02.859Z,0
2022-09-20T01:57:02.871Z,0
2022-09-20T01:58:02.284Z,0
2022-09-20T01:59:38.063Z,0
2022-09-20T02:00:02.821Z,0
2022-09-20T02:01:03.561Z,0
2022-09-20T02:02:03.255Z,0
2022-09-20T02:03:02.366Z,0
2022-09-20T02:04:02.906Z,0
2022-09-20T02:05:02.174Z,0
2022-09-20T02:06:02.999Z,0
2022-09-20T02:07:02.968Z,0
2022-09-20T02:08:03.270Z,0
2022-09-20T02:09:02.902Z,0
2022-09-20T02:10:02.898Z,0
2022-09-20T02:11:02.950Z,0
2022-09-20T02:12:03.044Z,0
2022-09-20T02:13:03.319Z,0
2022-09-20T02:14:02.889Z,0
2022-09-20T02:15:03.366Z,0
2022-09-20T02:16:02.965Z,0
2022-09-20T02:17:03.355Z,0
2022-09-20T02:18:03.074Z,0
2022-09-20T02:19:02.960Z,0
2022-09-20T02:20:02.952Z,0
2022-09-20T02:21:03.210Z,0
2022-09-20T02:22:03.499Z,0
2022-09-20T02:23:03.325Z,0
2022-09-20T02:24:03.572Z,0
2022-09-20T02:25:02.967Z,0
2022-09-20T02:26:03.309Z,0
2022-09-20T02:27:03.594Z,0
2022-09-20T02:28:03.367Z,0
2022-09-20T02:29:02.592Z,0
2022-09-20T02:30:03.391Z,0
2022-09-20T02:31:03.652Z,0
2022-09-20T02:32:03.979Z,0
2022-09-20T02:33:03.426Z,0
2022-09-20T02:34:03.731Z,0
2022-09-20T02:35:02.690Z,0
2022-09-20T02:36:03.245Z,0
2022-09-20T02:37:03.246Z,0
2022-09-20T02:38:03.562Z,0
2022-09-20T02:39:03.044Z,0
2022-09-20T02:40:03.964Z,0
2022-09-20T02:41:03.329Z,0
2022-09-20T02:42:03.625Z,0
2022-09-20T02:43:03.626Z,0
2022-09-20T02:44:03.640Z,0
2022-09-20T02:45:03.924Z,0
2022-09-20T02:46:04.085Z,0
2022-09-20T02:47:03.427Z,0
2022-09-20T02:48:03.446Z,0
2022-09-20T02:49:03.719Z,0
2022-09-20T02:50:03.527Z,0
2022-09-20T02:51:04.025Z,0
2022-09-20T02:52:03.532Z,0
2022-09-20T02:53:03.330Z,0
2022-09-20T02:54:03.855Z,0
2022-09-20T02:55:03.318Z,0
2022-09-20T02:56:03.659Z,0
2022-09-20T02:57:03.861Z,0
2022-09-20T02:58:03.894Z,0
2022-09-20T02:59:04.208Z,0
2022-09-20T03:00:03.925Z,0
2022-09-20T03:01:04.244Z,0
2022-09-20T03:02:04.067Z,0
2022-09-20T03:03:03.460Z,0
2022-09-20T03:04:03.749Z,0
2022-09-20T03:05:04.018Z,0
2022-09-20T03:06:04.059Z,0
2022-09-20T03:07:04.335Z,0
2022-09-20T03:08:05.362Z,0
2022-09-20T03:09:03.932Z,0
2022-09-20T03:10:04.134Z,0
2022-09-20T03:11:03.879Z,0
2022-09-20T03:12:04.468Z,0
2022-09-20T03:13:04.418Z,0
2022-09-20T03:14:03.925Z,0
2022-09-20T03:15:04.492Z,0
2022-09-20T03:16:04.014Z,0
2022-09-20T03:17:04.159Z,0
2022-09-20T03:18:04.372Z,0
2022-09-20T03:19:04.277Z,0
2022-09-20T03:20:04.034Z,0
2022-09-20T03:21:04.058Z,0
2022-09-20T03:22:04.097Z,0
2022-09-20T03:23:04.613Z,0
2022-09-20T03:24:04.193Z,0
2022-09-20T03:25:03.863Z,0
2022-09-20T03:26:04.445Z,0
2022-09-20T03:27:03.913Z,0
2022-09-20T03:28:04.751Z,0
2022-09-20T03:29:04.723Z,0
2022-09-20T03:30:04.742Z,0
2022-09-20T03:31:04.522Z,0
2022-09-20T03:32:05.070Z,0
2022-09-20T03:33:04.528Z,0
2022-09-20T03:34:04.814Z,0
2022-09-20T03:35:04.315Z,0
2022-09-20T03:36:04.861Z,0
2022-09-20T03:37:04.346Z,0
2022-09-20T03:38:04.736Z,0
2022-09-20T03:39:04.719Z,0
2022-09-20T03:40:05.247Z,0
2022-09-20T03:41:04.613Z,0
2022-09-20T03:42:04.714Z,0
2022-09-20T03:43:04.743Z,0
2022-09-20T03:44:05.095Z,0
2022-09-20T03:45:04.498Z,0
2022-09-20T03:46:05.531Z,0
2022-09-20T03:47:04.817Z,0
2022-09-20T03:48:05.291Z,0
2022-09-20T03:49:04.835Z,0
2022-09-20T03:50:05.085Z,0
2022-09-20T03:51:04.600Z,0
2022-09-20T03:52:05.035Z,0
2022-09-20T03:53:04.893Z,0
2022-09-20T03:54:04.713Z,0
2022-09-20T03:55:05.321Z,0
2022-09-20T03:56:04.699Z,0
2022-09-20T03:57:05.216Z,0
2022-09-20T03:58:09.273Z,0
2022-09-20T03:59:04.849Z,0
2022-09-20T04:00:05.327Z,0
2022-09-20T04:01:05.369Z,0
2022-09-20T04:02:05.220Z,0
2022-09-20T04:03:04.867Z,0
2022-09-20T04:04:04.838Z,0
2022-09-20T04:05:04.867Z,0
2022-09-20T04:06:04.884Z,0
2022-09-20T04:07:05.351Z,0
2022-09-20T04:08:05.011Z,0
2022-09-20T04:09:05.347Z,0
2022-09-20T04:10:05.532Z,0
2022-09-20T04:11:05.475Z,0
2022-09-20T04:12:05.395Z,0
2022-09-20T04:13:04.740Z,0
2022-09-20T04:14:11.223Z,0
2022-09-20T04:15:05.290Z,0
2022-09-20T04:16:05.107Z,0
2022-09-20T04:17:05.915Z,0
2022-09-20T04:18:05.537Z,0
2022-09-20T04:19:04.869Z,0
2022-09-20T04:20:05.121Z,0
2022-09-20T04:21:05.402Z,0
2022-09-20T04:22:04.912Z,0
2022-09-20T04:23:05.427Z,0
2022-09-20T04:24:05.539Z,0
2022-09-20T04:25:05.315Z,0
2022-09-20T04:26:05.518Z,0
2022-09-20T04:27:05.035Z,0
2022-09-20T04:28:05.789Z,0
2022-09-20T04:29:05.691Z,0
2022-09-20T04:30:05.578Z,0
2022-09-20T04:31:05.830Z,0
2022-09-20T04:32:06.430Z,0
2022-09-20T04:33:05.101Z,0
2022-09-20T04:34:05.103Z,0
2022-09-20T04:35:05.675Z,0
2022-09-20T04:36:05.416Z,0
2022-09-20T04:37:05.174Z,0
2022-09-20T04:38:05.695Z,0
2022-09-20T04:39:05.738Z,0
2022-09-20T04:40:06.199Z,0
2022-09-20T04:41:05.758Z,0
2022-09-20T04:42:06.052Z,0
2022-09-20T04:43:06.058Z,0
2022-09-20T04:44:05.575Z,0
2022-09-20T04:45:05.304Z,0
2022-09-20T04:46:06.721Z,0
2022-09-20T04:47:05.346Z,0
2022-09-20T04:48:05.958Z,0
2022-09-20T04:49:05.649Z,0
2022-09-20T04:50:05.658Z,0
2022-09-20T04:51:06.211Z,0
2022-09-20T04:52:06.214Z,0
2022-09-20T04:53:05.455Z,0
2022-09-20T04:54:06.236Z,0
2022-09-20T04:55:06.258Z,0
2022-09-20T04:56:06.266Z,0
2022-09-20T04:57:05.797Z,0
2022-09-20T04:58:06.104Z,0
2022-09-20T04:59:06.190Z,0
2022-09-20T05:00:06.099Z,0
2022-09-20T05:01:06.196Z,0
2022-09-20T05:02:06.871Z,0
2022-09-20T05:03:05.629Z,0
2022-09-20T05:04:06.216Z,0
2022-09-20T05:05:06.225Z,0
2022-09-20T05:06:06.248Z,0
2022-09-20T05:07:06.256Z,0
2022-09-20T05:08:06.226Z,0
2022-09-20T05:09:08.704Z,0
2022-09-20T05:10:06.015Z,0
2022-09-20T05:11:06.319Z,0
2022-09-20T05:12:05.822Z,0
2022-09-20T05:13:06.334Z,0
2022-09-20T05:14:06.373Z,0
2022-09-20T05:15:06.117Z,0
2022-09-20T05:16:06.270Z,0
2022-09-20T05:17:06.865Z,0
2022-09-20T05:18:06.193Z,0
2022-09-20T05:19:06.721Z,0
2022-09-20T05:20:06.520Z,0
2022-09-20T05:21:06.207Z,0
2022-09-20T05:22:06.771Z,0
2022-09-20T05:23:06.532Z,0
2022-09-20T05:24:07.527Z,5
2022-09-20T05:25:06.395Z,5
2022-09-20T05:26:06.035Z,5
2022-09-20T05:27:06.592Z,5
2022-09-20T05:28:06.380Z,5
2022-09-20T05:29:06.374Z,5
2022-09-20T05:30:11.659Z,5
2022-09-20T05:31:06.403Z,5
2022-09-20T05:32:07.257Z,5
2022-09-20T05:33:06.700Z,5
2022-09-20T05:34:06.487Z,5
2022-09-20T05:35:06.483Z,5
2022-09-20T05:36:07.059Z,5
2022-09-20T05:37:07.014Z,5
2022-09-20T05:38:06.524Z,5
2022-09-20T05:39:10.754Z,5
2022-09-20T05:40:06.885Z,5
2022-09-20T05:41:06.832Z,5
2022-09-20T05:42:07.111Z,5
2022-09-20T05:43:06.611Z,5
2022-09-20T05:44:06.450Z,5
2022-09-20T05:45:07.153Z,5
2022-09-20T05:46:07.003Z,5
2022-09-20T05:47:06.944Z,10
2022-09-20T05:48:06.959Z,10
2022-09-20T05:49:07.238Z,10
2022-09-20T05:50:07.027Z,10
2022-09-20T05:51:10.915Z,10
2022-09-20T05:52:07.067Z,10
2022-09-20T05:53:07.048Z,10
2022-09-20T05:54:07.320Z,10
2022-09-20T05:55:06.877Z,10
2022-09-20T05:56:07.116Z,10
2022-09-20T05:57:07.374Z,10
2022-09-20T05:58:07.396Z,10
2022-09-20T05:59:11.025Z,10
2022-09-20T06:00:06.915Z,10
2022-09-20T06:01:07.620Z,10
2022-09-20T06:02:07.410Z,10
2022-09-20T06:03:07.884Z,10
2022-09-20T06:04:06.997Z,10
2022-09-20T06:05:06.777Z,10
2022-09-20T06:06:07.214Z,10
2022-09-20T06:07:07.803Z,10
2022-09-20T06:08:07.310Z,15
2022-09-20T06:09:07.099Z,15
2022-09-20T06:10:07.376Z,15
2022-09-20T06:11:07.443Z,15
2022-09-20T06:12:07.642Z,15
2022-09-20T06:13:07.408Z,15
2022-09-20T06:14:07.547Z,15
2022-09-20T06:15:06.961Z,15
2022-09-20T06:16:07.207Z,10
2022-09-20T06:17:07.740Z,10
2022-09-20T06:18:07.278Z,10
2022-09-20T06:19:07.775Z,10
2022-09-20T06:20:07.440Z,10
2022-09-20T06:21:07.291Z,15
2022-09-20T06:22:12.900Z,15
2022-09-20T06:23:07.597Z,15
2022-09-20T06:24:07.598Z,15
2022-09-20T06:25:07.493Z,15
2022-09-20T06:26:07.682Z,20
2022-09-20T06:27:07.956Z,20
2022-09-20T06:28:07.678Z,20
2022-09-20T06:29:08.174Z,20
2022-09-20T06:30:07.708Z,20
2022-09-20T06:31:08.058Z,20
2022-09-20T06:32:08.017Z,20
2022-09-20T06:33:07.755Z,20
2022-09-20T06:34:07.564Z,20
2022-09-20T06:35:07.807Z,20
2022-09-20T06:36:08.746Z,20
2022-09-20T06:37:07.591Z,20
2022-09-20T06:38:07.930Z,25
2022-09-20T06:39:07.213Z,25
2022-09-20T06:40:07.766Z,25
2022-09-20T06:41:07.907Z,25
2022-09-20T06:42:07.932Z,25
2022-09-20T06:43:07.969Z,25
2022-09-20T06:44:08.203Z,25
2022-09-20T06:45:07.730Z,25
2022-09-20T06:46:08.424Z,25
2022-09-20T06:47:07.509Z,25
2022-09-20T06:48:08.034Z,25
2022-09-20T06:49:07.791Z,25
2022-09-20T06:50:08.107Z,30
2022-09-20T06:51:07.830Z,30
2022-09-20T06:52:08.371Z,35
2022-09-20T06:53:08.132Z,30
2022-09-20T06:54:08.473Z,30
2022-09-20T06:55:08.414Z,35
2022-09-20T06:56:08.181Z,45
2022-09-20T06:57:07.956Z,50
2022-09-20T06:58:08.215Z,45
2022-09-20T06:59:08.601Z,45
2022-09-20T07:00:07.747Z,45
2022-09-20T07:01:08.594Z,40
2022-09-20T07:02:08.753Z,35
2022-09-20T07:03:08.255Z,35
2022-09-20T07:04:08.317Z,35
2022-09-20T07:05:08.095Z,30
2022-09-20T07:06:08.137Z,30
2022-09-20T07:07:13.642Z,25
2022-09-20T07:08:08.141Z,25
2022-09-20T07:09:07.894Z,30
2022-09-20T07:10:08.659Z,35
2022-09-20T07:11:08.752Z,35
2022-09-20T07:12:08.483Z,35
2022-09-20T07:13:08.222Z,40
2022-09-20T07:14:08.507Z,40
2022-09-20T07:15:08.305Z,40
2022-09-20T07:16:08.701Z,45
2022-09-20T07:17:08.574Z,40
2022-09-20T07:18:08.845Z,40
2022-09-20T07:19:08.095Z,45
2022-09-20T07:20:08.370Z,50
2022-09-20T07:21:08.656Z,50
2022-09-20T07:22:08.444Z,50
2022-09-20T07:23:08.696Z,55
2022-09-20T07:24:08.421Z,55
2022-09-20T07:25:08.464Z,55
2022-09-20T07:26:09.058Z,55
2022-09-20T07:27:09.033Z,55
2022-09-20T07:28:09.028Z,55
2022-09-20T07:29:09.136Z,55
2022-09-20T07:30:09.069Z,55
2022-09-20T07:31:08.848Z,55
2022-09-20T07:32:08.851Z,60
2022-09-20T07:33:08.860Z,55
2022-09-20T07:34:08.878Z,55
2022-09-20T07:35:08.635Z,55
2022-09-20T07:36:08.908Z,55
2022-09-20T07:37:08.940Z,50
2022-09-20T07:38:08.492Z,50
2022-09-20T07:39:08.963Z,45
2022-09-20T07:40:08.518Z,40
2022-09-20T07:41:08.998Z,40
2022-09-20T07:42:09.375Z,40
2022-09-20T07:43:09.012Z,45
2022-09-20T07:44:09.019Z,45
2022-09-20T07:45:08.563Z,40
2022-09-20T07:46:09.368Z,35
2022-09-20T07:47:09.405Z,30
2022-09-20T07:48:08.877Z,25
2022-09-20T07:49:09.424Z,25
2022-09-20T07:50:09.455Z,25
2022-09-20T07:51:13.645Z,30
2022-09-20T07:52:08.965Z,35
2022-09-20T07:53:09.216Z,35
2022-09-20T07:54:09.290Z,35
2022-09-20T07:55:09.261Z,40
2022-09-20T07:56:09.044Z,40
2022-09-20T07:57:09.585Z,40
2022-09-20T07:58:09.653Z,45
2022-09-20T07:59:09.789Z,55
2022-09-20T08:00:09.366Z,60
2022-09-20T08:01:09.724Z,65
2022-09-20T08:02:09.678Z,70
2022-09-20T08:03:09.442Z,70
2022-09-20T08:04:08.929Z,70
2022-09-20T08:05:09.447Z,75
2022-09-20T08:06:09.212Z,80
2022-09-20T08:07:08.981Z,85
2022-09-20T08:08:09.260Z,90
2022-09-20T08:09:14.785Z,90
2022-09-20T08:10:09.045Z,85
2022-09-20T08:11:09.575Z,80
2022-09-20T08:14:16.819Z,75
2022-09-20T08:15:26.470Z,70
2022-09-20T08:16:26.352Z,70
2022-09-20T08:17:26.253Z,70
2022-09-20T08:18:26.533Z,75
2022-09-20T08:19:26.073Z,80
2022-09-20T08:20:26.921Z,80
2022-09-20T08:21:26.566Z,80
2022-09-20T08:22:26.859Z,75
2022-09-20T08:23:33.276Z,80
2022-09-20T08:24:26.189Z,85
2022-09-20T08:25:26.943Z,100
2022-09-20T08:26:26.665Z,100
2022-09-20T08:27:26.691Z,90
2022-09-20T08:28:26.974Z,80
2022-09-20T08:29:27.055Z,75
2022-09-20T08:30:32.376Z,75
2022-09-20T08:31:26.900Z,75
2022-09-20T08:32:27.040Z,70
2022-09-20T08:33:26.535Z,75
2022-09-20T08:34:26.591Z,70
2022-09-20T08:35:26.839Z,75
2022-09-20T08:36:29.916Z,75
2022-09-20T08:37:26.868Z,70
2022-09-20T08:40:00.874Z,75
2022-09-20T08:40:11.226Z,75
2022-09-20T08:41:10.281Z,75
2022-09-20T08:42:10.815Z,75
2022-09-20T08:43:15.348Z,80
2022-09-20T08:44:10.563Z,80
2022-09-20T08:45:11.355Z,75
2022-09-20T08:46:15.499Z,80
2022-09-20T08:47:10.646Z,80
2022-09-20T08:48:10.923Z,90
2022-09-20T08:49:15.369Z,95
2022-09-20T08:50:23.994Z,95
2022-09-20T08:51:22.336Z,95
2022-09-20T08:52:15.323Z,85
2022-09-20T08:53:11.022Z,90
2022-09-20T08:54:11.029Z,90
2022-09-20T08:55:17.035Z,95
2022-09-20T08:56:11.077Z,95
2022-09-20T08:57:11.114Z,80
2022-09-20T08:58:16.621Z,80
2022-09-20T08:59:11.138Z,85
2022-09-20T09:00:10.891Z,85
2022-09-20T09:01:12.041Z,90
2022-09-20T09:02:10.996Z,95
2022-09-20T09:03:11.212Z,90
2022-09-20T09:04:11.600Z,90
2022-09-20T09:05:10.724Z,85
2022-09-20T09:06:22.316Z,80
2022-09-20T09:07:11.267Z,80
2022-09-20T09:08:14.030Z,70
2022-09-20T09:09:11.322Z,65
2022-09-20T09:10:11.101Z,65
2022-09-20T09:11:11.376Z,70
2022-09-20T09:12:11.106Z,70
2022-09-20T09:13:11.392Z,75
2022-09-20T09:14:11.671Z,70
2022-09-20T09:15:11.177Z,75
2022-09-20T09:16:11.691Z,85
2022-09-20T09:17:12.091Z,80
2022-09-20T09:18:11.492Z,75
2022-09-20T09:19:11.494Z,70
2022-09-20T09:20:11.296Z,70
2022-09-20T09:21:11.078Z,65
2022-09-20T09:22:11.062Z,65
2022-09-20T09:23:11.094Z,60
2022-09-20T09:24:11.868Z,70
2022-09-20T09:25:11.360Z,70
2022-09-20T09:26:11.655Z,70
2022-09-20T09:27:11.417Z,70
2022-09-20T09:28:11.930Z,70
2022-09-20T09:29:11.200Z,75
2022-09-20T09:30:11.474Z,70
2022-09-20T09:31:12.044Z,65
2022-09-20T09:32:11.923Z,60
2022-09-20T09:33:12.109Z,65
2022-09-20T09:34:11.913Z,55
2022-09-20T09:35:11.563Z,55
2022-09-20T09:36:11.820Z,55
2022-09-20T09:37:12.108Z,65
2022-09-20T09:38:11.901Z,70
2022-09-20T09:39:11.874Z,70
2022-09-20T09:40:12.125Z,75
2022-09-20T09:41:12.181Z,70
2022-09-20T09:42:11.943Z,65
2022-09-20T09:43:11.992Z,65
2022-09-20T09:44:11.982Z,55
2022-09-20T09:45:11.487Z,60
2022-09-20T09:46:12.353Z,70
2022-09-20T09:47:12.086Z,75
2022-09-20T09:48:12.363Z,70
2022-09-20T09:49:17.461Z,75
2022-09-20T09:50:18.859Z,95
2022-09-20T09:51:11.844Z,75
2022-09-20T09:52:12.109Z,85
2022-09-20T09:53:12.299Z,90
2022-09-20T09:54:12.347Z,95
2022-09-20T09:55:14.974Z,110
2022-09-20T09:56:17.899Z,115
2022-09-20T09:57:12.064Z,125
2022-09-20T09:58:12.486Z,115
2022-09-20T09:59:12.601Z,120
2022-09-20T10:00:27.165Z,105
2022-09-20T10:01:12.342Z,100
2022-09-20T10:02:12.440Z,100
2022-09-20T10:03:11.915Z,95
2022-09-20T10:04:12.027Z,105
2022-09-20T10:05:12.919Z,105
2022-09-20T10:06:12.394Z,105
2022-09-20T10:07:12.159Z,90
2022-09-20T10:08:12.699Z,80
2022-09-20T10:09:12.446Z,75
2022-09-20T10:10:12.908Z,70
2022-09-20T10:11:12.249Z,70
2022-09-20T10:12:12.870Z,70
2022-09-20T10:13:12.892Z,65
2022-09-20T10:14:12.941Z,60
2022-09-20T10:15:12.906Z,55
2022-09-20T10:16:12.330Z,55
2022-09-20T10:17:12.083Z,60
2022-09-20T10:18:12.618Z,50
2022-09-20T10:19:12.656Z,50
2022-09-20T10:20:12.148Z,50
2022-09-20T10:21:12.994Z,60
2022-09-20T10:22:12.693Z,55
2022-09-20T10:24:09.805Z,50
2022-09-20T10:25:19.894Z,50
2022-09-20T10:26:19.650Z,55
2022-09-20T10:27:19.420Z,55
2022-09-20T10:28:19.193Z,45
2022-09-20T10:29:19.446Z,45
2022-09-20T10:30:20.035Z,65
2022-09-20T10:31:25.880Z,60
2022-09-20T10:32:22.828Z,55
2022-09-20T10:33:19.330Z,55
2022-09-20T10:34:19.802Z,50
2022-09-20T10:35:19.304Z,55
2022-09-20T10:36:20.231Z,60
2022-09-20T10:37:19.872Z,55
2022-09-20T10:38:19.925Z,65
2022-09-20T10:39:19.912Z,80
2022-09-20T10:40:20.387Z,85
2022-09-20T10:41:19.715Z,70
2022-09-20T10:42:20.266Z,75
2022-09-20T10:43:20.041Z,70
2022-09-20T10:44:19.984Z,55
2022-09-20T10:46:34.101Z,55
2022-09-20T10:46:44.543Z,55
2022-09-20T10:47:43.768Z,50
2022-09-20T10:48:44.033Z,70
2022-09-20T10:49:47.269Z,70
2022-09-20T10:50:44.211Z,55
2022-09-20T10:51:44.419Z,65
2022-09-20T10:52:44.114Z,75
2022-09-20T10:53:44.138Z,85
2022-09-20T10:54:44.166Z,95
2022-09-20T10:55:44.154Z,70
2022-09-20T10:56:43.698Z,55
2022-09-20T10:57:49.233Z,50
2022-09-20T10:58:44.222Z,50
2022-09-20T10:59:43.983Z,55
2022-09-20T11:00:44.127Z,55
2022-09-20T11:01:44.098Z,50
2022-09-20T11:02:44.045Z,55
2022-09-20T11:03:44.566Z,55
2022-09-20T11:04:44.064Z,55
2022-09-20T11:05:44.669Z,55
2022-09-20T11:06:44.622Z,55
2022-09-20T11:07:44.722Z,50
2022-09-20T11:08:44.410Z,55
2022-09-20T11:09:44.416Z,65
2022-09-20T11:10:44.642Z,70
2022-09-20T11:11:43.946Z,65
2022-09-20T11:12:44.494Z,55
2022-09-20T11:13:44.962Z,55
2022-09-20T11:14:44.770Z,60
2022-09-20T11:15:44.785Z,65
2022-09-20T11:16:44.913Z,65
2022-09-20T11:17:44.848Z,60
2022-09-20T11:18:44.598Z,60
2022-09-20T11:19:44.360Z,60
2022-09-20T11:20:44.625Z,65
2022-09-20T11:21:44.678Z,60
2022-09-20T11:22:44.436Z,55
2022-09-20T11:23:45.043Z,60
2022-09-20T11:24:44.493Z,65
2022-09-20T11:25:44.210Z,65
2022-09-20T11:26:44.766Z,80
2022-09-20T11:27:44.517Z,80
2022-09-20T11:28:44.548Z,80
2022-09-20T11:29:44.811Z,85
2022-09-20T11:30:45.083Z,100
2022-09-20T11:31:45.243Z,105
2022-09-20T11:32:44.869Z,110
2022-09-20T11:33:49.831Z,125
2022-09-20T11:34:45.178Z,135
2022-09-20T11:35:44.410Z,145
2022-09-20T11:36:44.948Z,150
2022-09-20T11:37:44.865Z,150
2022-09-20T11:38:45.558Z,130
2022-09-20T11:39:45.351Z,110
2022-09-20T11:40:45.840Z,100
2022-09-20T11:41:45.032Z,85
2022-09-20T11:42:45.055Z,75
2022-09-20T11:43:44.826Z,65
2022-09-20T11:44:44.878Z,60
2022-09-20T11:45:45.294Z,60
2022-09-20T11:46:45.383Z,55
2022-09-20T11:48:04.133Z,50
2022-09-20T11:48:45.169Z,45
2022-09-20T11:49:45.268Z,40
2022-09-20T11:50:45.245Z,35
2022-09-20T11:51:45.221Z,30
2022-09-20T11:52:45.253Z,30
2022-09-20T11:53:46.195Z,35
2022-09-20T11:54:45.286Z,35
2022-09-20T11:55:45.491Z,40
2022-09-20T11:56:45.586Z,45
2022-09-20T11:57:45.615Z,45
2022-09-20T11:58:45.622Z,45
2022-09-20T11:59:44.623Z,55
2022-09-20T12:00:45.698Z,65
2022-09-20T12:01:45.841Z,60
2022-09-20T12:02:46.154Z,50
2022-09-20T12:03:45.742Z,35
2022-09-20T12:04:47.003Z,30
2022-09-20T12:05:46.219Z,25
2022-09-20T12:06:45.518Z,25
2022-09-20T12:07:45.547Z,25
2022-09-20T12:08:45.306Z,25
2022-09-20T12:09:45.878Z,25
2022-09-20T12:10:45.621Z,30
2022-09-20T12:11:45.948Z,40
2022-09-20T12:12:45.702Z,45
2022-09-20T12:13:45.661Z,45
2022-09-20T12:14:45.159Z,45
2022-09-20T12:15:45.956Z,45
2022-09-20T12:16:46.429Z,45
2022-09-20T12:17:45.480Z,45
2022-09-20T12:18:45.245Z,50
2022-09-20T12:19:45.784Z,50
2022-09-20T12:20:45.797Z,55
2022-09-20T12:21:51.844Z,55
2022-09-20T12:22:45.578Z,55
2022-09-20T12:23:45.899Z,60
2022-09-20T12:24:51.472Z,60
2022-09-20T12:25:45.652Z,60
2022-09-20T12:26:45.425Z,55
2022-09-20T12:27:46.277Z,60
2022-09-20T12:28:45.997Z,60
2022-09-20T12:29:45.461Z,60
2022-09-20T12:30:46.256Z,55
2022-09-20T12:31:45.987Z,55
2022-09-20T12:32:45.814Z,55
2022-09-20T12:33:46.099Z,50
2022-09-20T12:34:45.832Z,50
2022-09-20T12:35:46.388Z,50
2022-09-20T12:36:46.383Z,50
2022-09-20T12:37:45.908Z,50
2022-09-20T12:38:46.398Z,50
2022-09-20T12:39:46.170Z,50
2022-09-20T12:40:46.334Z,50
2022-09-20T12:41:45.949Z,55
2022-09-20T12:42:45.979Z,60
2022-09-20T12:43:46.590Z,60
2022-09-20T12:44:46.282Z,65
2022-09-20T12:45:46.555Z,65
2022-09-20T12:46:46.312Z,60
2022-09-20T12:47:46.344Z,60
2022-09-20T12:48:46.620Z,55
2022-09-20T12:49:45.607Z,55
2022-09-20T12:50:46.653Z,50
2022-09-20T12:51:46.144Z,50
2022-09-20T12:52:45.649Z,50
2022-09-20T12:53:46.519Z,50
2022-09-20T12:54:46.209Z,50
2022-09-20T12:55:46.045Z,55
2022-09-20T12:56:46.009Z,60
2022-09-20T12:57:46.537Z,65
2022-09-20T12:58:46.815Z,65
2022-09-20T12:59:46.894Z,70
2022-09-20T13:00:46.639Z,75
2022-09-20T13:01:46.883Z,80
2022-09-20T13:02:46.102Z,80
2022-09-20T13:03:46.384Z,80
2022-09-20T13:04:46.686Z,80
2022-09-20T13:05:46.988Z,80
2022-09-20T13:06:46.950Z,80
2022-09-20T13:07:52.050Z,80
2022-09-20T13:08:46.214Z,75
2022-09-20T13:09:46.777Z,80
2022-09-20T13:10:46.510Z,75
2022-09-20T13:11:47.039Z,75
2022-09-20T13:12:47.088Z,75
2022-09-20T13:13:46.912Z,80
2022-09-20T13:14:46.596Z,85
2022-09-20T13:15:46.979Z,95
2022-09-20T13:16:46.966Z,100
2022-09-20T13:17:46.904Z,100
2022-09-20T13:18:46.935Z,100
2022-09-20T13:19:47.241Z,100
2022-09-20T13:20:47.228Z,100
2022-09-20T13:21:46.995Z,105
2022-09-20T13:22:47.282Z,105
2022-09-20T13:23:47.323Z,105
2022-09-20T13:24:47.062Z,105
2022-09-20T13:25:47.097Z,95
2022-09-20T13:26:47.091Z,90
2022-09-20T13:27:46.855Z,80
2022-09-20T13:28:46.865Z,80
2022-09-20T13:29:47.143Z,90
2022-09-20T13:30:46.914Z,110
2022-09-20T13:31:47.795Z,115
2022-09-20T13:32:47.455Z,110
2022-09-20T13:33:46.978Z,105
2022-09-20T13:34:47.003Z,90
2022-09-20T13:35:47.529Z,75
2022-09-20T13:36:47.123Z,80
2022-09-20T13:37:47.065Z,75
2022-09-20T13:38:47.328Z,75
2022-09-20T13:39:47.088Z,75
2022-09-20T13:40:47.752Z,75
2022-09-20T13:41:47.157Z,75
2022-09-20T13:42:47.396Z,75
2022-09-20T13:43:47.708Z,75
2022-09-20T13:44:47.438Z,70
2022-09-20T13:45:47.392Z,70
2022-09-20T13:46:47.213Z,65
2022-09-20T13:47:48.009Z,65
2022-09-20T13:48:47.256Z,65
2022-09-20T13:49:47.791Z,60
2022-09-20T13:50:58.435Z,70
2022-09-20T13:51:47.077Z,70
2022-09-20T13:52:47.626Z,70
2022-09-20T13:53:51.798Z,70
2022-09-20T13:54:47.631Z,70
2022-09-20T13:55:47.398Z,70
2022-09-20T13:56:47.169Z,70
2022-09-20T13:57:47.000Z,70
2022-09-20T13:58:47.731Z,70
2022-09-20T13:59:47.470Z,70
2022-09-20T14:00:48.480Z,70
2022-09-20T14:01:48.043Z,70
2022-09-20T14:02:47.550Z,70
2022-09-20T14:03:48.150Z,70
2022-09-20T14:04:47.577Z,70
2022-09-20T14:05:48.058Z,65
2022-09-20T14:06:47.364Z,65
2022-09-20T14:07:48.146Z,65
2022-09-20T14:08:47.971Z,65
2022-09-20T14:09:47.930Z,65
2022-09-20T14:10:47.689Z,70
2022-09-20T14:11:48.301Z,85
2022-09-20T14:12:47.487Z,90
2022-09-20T14:13:48.044Z,95
2022-09-20T14:14:48.296Z,95
2022-09-20T14:15:47.539Z,100
2022-09-20T14:16:48.336Z,110
2022-09-20T14:17:48.378Z,125
2022-09-20T14:18:48.119Z,140
2022-09-20T14:19:48.463Z,145
2022-09-20T14:20:47.910Z,140
2022-09-20T14:21:48.503Z,130
2022-09-20T14:22:47.953Z,120
2022-09-20T14:23:48.467Z,110
2022-09-20T14:24:48.267Z,100
2022-09-20T14:25:48.510Z,85
2022-09-20T14:26:48.016Z,80
2022-09-20T14:27:48.299Z,80
2022-09-20T14:28:48.317Z,80
2022-09-20T14:29:48.140Z,80
2022-09-20T14:30:48.104Z,75